Time;durP1;ratioP1;P1;durP2;ratioP2;P2;SDS_P1;SDS_P2;PMS_P1;PMS_P2;Temp;Humidity;BMP_temperature;BMP_pressure;BME280_temperature;BME280_humidity;BME280_pressure;Samples;Min_cycle;Max_cycle;Signal;HPM_P1;HPM_P2
2021/10/23 00:00:10;;;;;;;9.60;1.57;;;10.10;1.00;;;;;;5059454;28;20402;-75
2021/10/23 00:02:40;;;;;;;3.73;1.33;;;10.00;1.00;;;;;;5046597;28;20275;-75
2021/10/23 00:05:06;;;;;;;2.10;0.90;;;;;;;;;;5053412;28;20473;-75
2021/10/23 00:07:58;;;;;;;2.70;0.97;;;10.00;1.00;;;;;;5054224;28;20418;-75
2021/10/23 00:10:24;;;;;;;1.83;0.90;;;10.00;1.00;;;;;;5053974;28;20407;-75
2021/10/23 00:12:49;;;;;;;2.97;0.80;;;10.00;1.00;;;;;;5037650;28;20453;-75
2021/10/23 00:15:16;;;;;;;2.70;0.80;;;10.10;1.00;;;;;;5047164;28;20464;-75
2021/10/23 00:17:42;;;;;;;1.27;0.70;;;10.00;1.00;;;;;;5055545;28;20186;-75
2021/10/23 00:20:08;;;;;;;1.57;0.90;;;10.00;1.00;;;;;;5046760;28;20419;-75
2021/10/23 00:22:34;;;;;;;1.17;0.70;;;;;;;;;;5034818;28;20212;-75
2021/10/23 00:25:00;;;;;;;1.33;0.97;;;10.10;1.00;;;;;;5033842;28;20385;-75
2021/10/23 00:27:28;;;;;;;4.80;1.20;;;10.10;1.00;;;;;;5047334;28;20994;-76
2021/10/23 00:29:59;;;;;;;2.70;1.00;;;10.10;1.00;;;;;;5040427;28;20417;-75
2021/10/23 00:32:26;;;;;;;4.13;0.70;;;10.00;1.00;;;;;;5051897;28;20437;-75
2021/10/23 00:34:52;;;;;;;1.53;0.80;;;10.00;1.00;;;;;;5041622;28;20426;-75
2021/10/23 00:37:22;;;;;;;3.03;0.90;;;10.00;1.00;;;;;;5052527;28;20394;-75
2021/10/23 00:39:52;;;;;;;1.33;0.80;;;10.00;1.00;;;;;;5041669;28;20418;-75
2021/10/23 00:42:22;;;;;;;1.80;0.90;;;10.00;1.00;;;;;;5053028;28;20928;-75
2021/10/23 00:44:48;;;;;;;1.37;0.80;;;10.00;1.00;;;;;;5053569;28;20418;-75
2021/10/23 00:47:20;;;;;;;3.67;1.00;;;10.00;1.00;;;;;;5051188;28;20449;-75
2021/10/23 00:49:52;;;;;;;1.20;1.10;;;9.90;1.00;;;;;;5043476;28;20167;-75
2021/10/23 00:52:20;;;;;;;0.83;0.83;;;9.80;1.00;;;;;;5045353;28;20509;-75
2021/10/23 00:54:46;;;;;;;1.27;0.80;;;9.80;1.00;;;;;;5052077;28;20493;-76
2021/10/23 00:57:13;;;;;;;2.10;0.83;;;;;;;;;;5053301;28;20497;-75
2021/10/23 00:59:39;;;;;;;1.17;1.07;;;9.70;1.00;;;;;;5054695;28;20414;-76
2021/10/23 01:02:05;;;;;;;0.70;0.70;;;9.70;1.00;;;;;;5053476;28;20442;-75
2021/10/23 01:04:32;;;;;;;2.90;1.30;;;9.70;1.00;;;;;;5034311;28;20435;-75
2021/10/23 01:06:58;;;;;;;3.67;0.80;;;9.60;1.00;;;;;;5045400;28;20402;-75
2021/10/23 01:09:24;;;;;;;1.70;0.90;;;9.60;1.00;;;;;;5053121;28;21067;-75
2021/10/23 01:11:58;;;;;;;3.00;1.03;;;9.50;1.00;;;;;;5053009;28;20484;-76
2021/10/23 01:14:28;;;;;;;1.67;1.17;;;9.50;1.00;;;;;;5049151;28;20434;-76
2021/10/23 01:16:55;;;;;;;2.57;0.90;;;9.50;1.00;;;;;;5064317;28;20422;-76
2021/10/23 01:19:22;;;;;;;7.07;1.00;;;9.50;1.00;;;;;;5037840;28;20423;-75
2021/10/23 01:21:49;;;;;;;1.00;0.90;;;9.50;1.00;;;;;;5056455;28;20422;-76
2021/10/23 01:24:16;;;;;;;0.93;0.73;;;9.50;1.00;;;;;;5049239;28;20449;-76
2021/10/23 01:26:52;;;;;;;1.20;0.87;;;9.50;1.00;;;;;;5039170;28;20426;-76
2021/10/23 01:29:19;;;;;;;2.23;0.77;;;9.40;1.00;;;;;;5045380;28;20485;-75
2021/10/23 01:31:48;;;;;;;5.33;1.37;;;9.40;1.00;;;;;;5039289;28;20423;-75
2021/10/23 01:34:14;;;;;;;6.00;1.47;;;;;;;;;;5046366;28;20413;-75
2021/10/23 01:36:47;;;;;;;9.93;1.10;;;9.50;1.00;;;;;;5052738;28;20448;-75
2021/10/23 01:39:16;;;;;;;0.90;0.90;;;9.40;1.00;;;;;;5056271;28;20417;-76
2021/10/23 01:41:43;;;;;;;1.30;1.17;;;;;;;;;;5042654;28;20836;-75
2021/10/23 01:44:10;;;;;;;1.23;0.83;;;9.40;1.00;;;;;;5055002;28;20458;-75
2021/10/23 01:46:36;;;;;;;6.90;1.43;;;9.40;1.00;;;;;;5043146;28;20484;-75
2021/10/23 01:49:05;;;;;;;2.03;1.00;;;9.40;1.00;;;;;;5045263;28;20423;-75
2021/10/23 01:51:36;;;;;;;2.10;1.10;;;9.40;1.00;;;;;;5042172;28;20422;-76
2021/10/23 01:54:11;;;;;;;0.70;0.70;;;9.40;1.00;;;;;;5056078;28;20406;-75
2021/10/23 01:56:39;;;;;;;1.67;1.03;;;9.40;1.00;;;;;;5042949;28;20410;-76
2021/10/23 01:59:06;;;;;;;1.13;0.80;;;9.30;1.00;;;;;;5046992;28;20457;-75
2021/10/23 02:01:32;;;;;;;0.70;0.70;;;9.20;1.00;;;;;;5049511;28;20407;-75
2021/10/23 02:03:58;;;;;;;9.73;2.10;;;;;;;;;;5056615;28;20954;-75
2021/10/23 02:06:46;;;;;;;2.70;1.17;;;9.20;1.00;;;;;;5055607;28;20472;-75
2021/10/23 02:09:11;;;;;;;2.50;1.03;;;9.20;1.00;;;;;;5034919;28;20902;-75
2021/10/23 02:11:38;;;;;;;1.10;1.00;;;;;;;;;;5042559;28;20436;-75
2021/10/23 02:14:04;;;;;;;1.13;0.93;;;9.10;1.00;;;;;;5051780;28;20251;-75
2021/10/23 02:16:40;;;;;;;8.03;1.57;;;9.10;1.00;;;;;;5050609;28;20446;-76
2021/10/23 02:19:06;;;;;;;6.77;1.20;;;;;;;;;;5035937;28;20429;-76
2021/10/23 02:21:34;;;;;;;5.47;0.97;;;9.10;1.00;;;;;;5042612;28;20840;-75
2021/10/23 02:24:00;;;;;;;1.87;0.87;;;9.00;1.00;;;;;;5052214;28;20548;-75
2021/10/23 02:26:26;;;;;;;2.10;0.97;;;;;;;;;;5054811;28;20537;-76
2021/10/23 02:28:52;;;;;;;1.10;1.00;;;9.00;1.00;;;;;;5055635;28;20531;-76
2021/10/23 02:31:40;;;;;;;4.10;1.40;;;9.00;1.00;;;;;;5055315;28;20845;-76
2021/10/23 02:34:10;;;;;;;2.93;0.93;;;9.00;1.00;;;;;;5051398;28;20430;-76
2021/10/23 02:36:36;;;;;;;2.80;1.33;;;9.00;1.00;;;;;;5035834;28;20438;-76
2021/10/23 02:39:02;;;;;;;1.57;1.10;;;9.00;1.00;;;;;;5052410;28;20832;-76
2021/10/23 02:41:34;;;;;;;1.57;1.17;;;9.00;1.00;;;;;;5055252;28;20598;-76
2021/10/23 02:44:04;;;;;;;3.13;1.13;;;8.90;1.00;;;;;;5055065;28;20450;-76
2021/10/23 02:46:31;;;;;;;6.47;1.00;;;8.90;1.00;;;;;;5055367;28;20422;-75
2021/10/23 02:48:57;;;;;;;6.13;1.00;;;;;;;;;;5049694;28;20427;-75
2021/10/23 02:51:28;;;;;;;1.53;0.80;;;8.80;1.00;;;;;;5035313;28;20758;-75
2021/10/23 02:53:58;;;;;;;0.83;0.83;;;8.80;1.00;;;;;;5054219;28;20877;-75
2021/10/23 02:56:28;;;;;;;2.60;1.20;;;8.70;1.00;;;;;;5055075;28;20964;-75
2021/10/23 02:58:58;;;;;;;1.00;0.90;;;8.70;1.00;;;;;;5050613;28;20777;-75
2021/10/23 03:01:24;;;;;;;3.90;1.30;;;8.60;1.00;;;;;;5047691;28;20419;-75
2021/10/23 03:03:50;;;;;;;4.20;1.00;;;8.60;1.00;;;;;;5044228;28;20886;-75
2021/10/23 03:06:18;;;;;;;2.40;1.10;;;8.60;1.00;;;;;;5042386;28;20225;-75
2021/10/23 03:09:04;;;;;;;1.90;0.93;;;8.60;1.00;;;;;;5044303;28;20434;-75
2021/10/23 03:11:30;;;;;;;3.40;1.07;;;;;;;;;;5041481;28;20417;-75
2021/10/23 03:13:57;;;;;;;2.30;0.93;;;;;;;;;;5042353;28;20426;-75
2021/10/23 03:16:23;;;;;;;1.20;1.00;;;8.50;1.00;;;;;;5040371;28;20421;-75
2021/10/23 03:18:49;;;;;;;0.90;0.90;;;8.40;1.00;;;;;;5053562;28;20462;-76
2021/10/23 03:21:15;;;;;;;0.70;0.70;;;;;;;;;;5041420;28;20449;-76
2021/10/23 03:23:41;;;;;;;1.50;0.83;;;8.50;1.00;;;;;;5052431;28;20493;-76
2021/10/23 03:26:06;;;;;;;2.13;1.03;;;8.50;1.00;;;;;;5054610;28;20831;-76
2021/10/23 03:28:33;;;;;;;0.83;0.83;;;8.50;1.00;;;;;;5054333;28;20178;-76
2021/10/23 03:30:58;;;;;;;1.43;0.80;;;8.50;1.00;;;;;;5054511;28;20196;-76
2021/10/23 03:33:34;;;;;;;0.70;0.70;;;8.50;1.00;;;;;;5042748;28;20439;-75
2021/10/23 03:36:00;;;;;;;0.77;0.70;;;8.40;1.00;;;;;;5039995;28;20187;-76
2021/10/23 03:38:26;;;;;;;1.30;1.00;;;;;;;;;;5053193;28;20429;-75
2021/10/23 03:40:52;;;;;;;4.03;1.00;;;8.50;1.00;;;;;;5041209;28;20793;-75
2021/10/23 03:43:18;;;;;;;3.43;1.03;;;8.50;1.00;;;;;;5052792;28;20981;-75
2021/10/23 03:45:46;;;;;;;1.63;1.37;;;8.50;1.00;;;;;;5050250;28;20446;-75
2021/10/23 03:48:12;;;;;;;1.83;1.10;;;8.50;1.00;;;;;;5054162;28;20191;-75
2021/10/23 03:50:38;;;;;;;1.53;1.10;;;;;;;;;;5054277;28;20402;-75
2021/10/23 03:53:04;;;;;;;1.20;1.03;;;8.40;1.00;;;;;;5053473;28;20544;-75
2021/10/23 03:55:40;;;;;;;11.77;1.47;;;8.40;1.00;;;;;;5047348;28;20434;-75
2021/10/23 03:58:06;;;;;;;2.57;1.33;;;;;;;;;;5045244;28;20163;-75
2021/10/23 04:00:32;;;;;;;1.43;1.00;;;8.30;1.00;;;;;;5042855;28;20414;-75
2021/10/23 04:02:58;;;;;;;2.33;1.03;;;;;;;;;;5051451;28;20512;-76
2021/10/23 04:05:24;;;;;;;4.10;1.00;;;8.20;1.00;;;;;;5064638;28;20170;-75
2021/10/23 04:07:53;;;;;;;9.70;1.27;;;8.10;1.00;;;;;;5039620;28;20435;-76
2021/10/23 04:10:19;;;;;;;1.53;0.83;;;8.00;1.00;;;;;;5049125;28;20180;-76
2021/10/23 04:12:45;;;;;;;0.83;0.77;;;8.00;1.00;;;;;;5040488;28;20776;-76
2021/10/23 04:15:11;;;;;;;4.97;0.80;;;7.90;1.00;;;;;;5053523;28;20479;-76
2021/10/23 04:17:37;;;;;;;2.00;0.97;;;;;;;;;;5040662;28;20222;-75
2021/10/23 04:20:05;;;;;;;3.80;1.07;;;7.90;1.00;;;;;;5053471;28;20190;-75
2021/10/23 04:22:31;;;;;;;1.67;1.07;;;7.90;1.00;;;;;;5052077;28;20486;-75
2021/10/23 04:24:58;;;;;;;1.10;1.00;;;7.90;1.00;;;;;;5053641;28;20437;-75
2021/10/23 04:27:24;;;;;;;0.70;0.70;;;7.80;1.00;;;;;;5053539;28;20681;-75
2021/10/23 04:29:50;;;;;;;0.83;0.80;;;;;;;;;;5052170;28;20508;-75
2021/10/23 04:32:16;;;;;;;2.10;1.10;;;7.90;1.00;;;;;;5053675;28;20401;-75
2021/10/23 04:34:42;;;;;;;3.70;1.10;;;7.90;1.00;;;;;;5041022;28;20515;-76
2021/10/23 04:37:09;;;;;;;1.57;1.00;;;7.90;1.00;;;;;;5049641;28;20426;-76
2021/10/23 04:39:40;;;;;;;4.20;1.00;;;7.90;1.00;;;;;;5044440;28;20515;-76
2021/10/23 04:42:07;;;;;;;2.57;1.40;;;;;;;;;;5049635;28;20422;-76
2021/10/23 04:44:33;;;;;;;1.00;1.00;;;;;;;;;;5042887;28;20415;-76
2021/10/23 04:46:59;;;;;;;1.20;1.00;;;8.00;1.00;;;;;;5036940;28;20429;-76
2021/10/23 04:49:28;;;;;;;3.23;1.30;;;8.00;1.00;;;;;;5051356;28;20422;-76
2021/10/23 04:51:58;;;;;;;6.97;1.40;;;8.00;1.00;;;;;;5046362;28;20436;-76
2021/10/23 04:54:24;;;;;;;0.80;0.80;;;8.00;1.00;;;;;;5057349;28;20422;-76
2021/10/23 04:56:52;;;;;;;2.03;1.10;;;8.00;1.00;;;;;;5052627;28;20422;-76
2021/10/23 04:59:18;;;;;;;3.07;1.57;;;8.00;1.00;;;;;;5054372;28;20184;-76
2021/10/23 05:01:52;;;;;;;12.03;1.20;;;8.10;1.00;;;;;;5052705;28;20415;-78
2021/10/23 05:04:22;;;;;;;1.67;1.27;;;8.10;1.00;;;;;;5038082;28;20211;-80
2021/10/23 05:06:52;;;;;;;1.30;1.07;;;8.00;1.00;;;;;;5043968;28;20422;-76
2021/10/23 05:09:18;;;;;;;5.57;1.40;;;7.90;1.00;;;;;;5057068;28;20451;-76
2021/10/23 05:11:44;;;;;;;1.93;1.13;;;7.80;1.00;;;;;;5057176;28;20410;-77
2021/10/23 05:14:10;;;;;;;7.43;1.40;;;7.80;1.00;;;;;;5056900;28;20191;-76
2021/10/23 05:16:46;;;;;;;1.80;1.20;;;7.80;1.00;;;;;;5049948;28;20536;-77
2021/10/23 05:19:22;;;;;;;1.57;0.87;;;7.70;1.00;;;;;;5041247;28;20429;-75
2021/10/23 05:21:48;;;;;;;2.77;1.73;;;7.60;1.00;;;;;;5056880;28;20419;-76
2021/10/23 05:24:16;;;;;;;1.40;1.23;;;7.60;1.00;;;;;;5043337;28;20880;-75
2021/10/23 05:26:47;;;;;;;11.03;1.73;;;7.50;1.00;;;;;;5045374;28;20184;-75
2021/10/23 05:29:16;;;;;;;1.83;1.20;;;7.40;1.00;;;;;;5040641;28;20509;-75
2021/10/23 05:31:42;;;;;;;1.67;1.57;;;7.40;1.00;;;;;;5045556;28;20411;-76
2021/10/23 05:34:07;;;;;;;2.73;1.10;;;7.40;1.00;;;;;;5040906;28;20449;-75
2021/10/23 05:36:34;;;;;;;6.37;2.13;;;7.40;1.00;;;;;;5054566;28;20180;-75
2021/10/23 05:39:00;;;;;;;3.10;1.70;;;;;;;;;;5056343;28;20506;-75
2021/10/23 05:41:28;;;;;;;1.83;1.30;;;7.30;1.00;;;;;;5045513;28;20424;-75
2021/10/23 05:43:55;;;;;;;2.93;1.80;;;7.40;1.00;;;;;;5055707;28;20453;-75
2021/10/23 05:46:20;;;;;;;3.30;1.90;;;7.30;1.00;;;;;;5056208;28;20897;-75
2021/10/23 05:49:04;;;;;;;1.50;1.40;;;7.20;1.00;;;;;;5055001;28;20449;-76
2021/10/23 05:51:40;;;;;;;1.33;1.23;;;7.20;1.00;;;;;;5056121;28;20429;-76
2021/10/23 05:54:06;;;;;;;1.40;1.30;;;7.10;1.00;;;;;;5047700;28;20426;-76
2021/10/23 05:56:32;;;;;;;5.87;2.10;;;7.00;1.00;;;;;;5054375;28;20479;-76
2021/10/23 05:59:11;;;;;;;11.80;2.70;;;;;;;;;;5051987;28;20186;-76
2021/10/23 06:01:43;;;;;;;1.53;1.30;;;6.90;1.00;;;;;;5052929;28;20188;-76
2021/10/23 06:04:09;;;;;;;2.10;1.90;;;6.90;1.00;;;;;;5060152;28;20548;-75
2021/10/23 06:06:35;;;;;;;4.37;1.80;;;6.90;1.00;;;;;;5048064;28;20509;-75
2021/10/23 06:09:03;;;;;;;1.90;1.70;;;6.80;1.00;;;;;;5044273;28;20188;-75
2021/10/23 06:11:29;;;;;;;3.00;1.80;;;6.70;1.00;;;;;;5051134;28;20411;-75
2021/10/23 06:13:56;;;;;;;1.53;1.43;;;6.70;1.00;;;;;;5055907;28;20434;-75
2021/10/23 06:16:22;;;;;;;2.80;1.47;;;6.70;1.00;;;;;;5054473;28;20472;-75
2021/10/23 06:18:53;;;;;;;2.63;1.60;;;;;;;;;;5056079;28;20430;-76
2021/10/23 06:21:19;;;;;;;1.63;1.50;;;6.80;1.00;;;;;;5041858;28;20422;-76
2021/10/23 06:23:44;;;;;;;1.30;1.20;;;6.90;1.00;;;;;;5035635;28;20443;-76
2021/10/23 06:26:16;;;;;;;5.60;1.73;;;6.90;1.00;;;;;;5035764;28;20745;-76
2021/10/23 06:28:46;;;;;;;4.13;1.63;;;7.00;1.00;;;;;;5049416;28;20179;-76
2021/10/23 06:31:22;;;;;;;1.70;1.60;;;7.10;1.00;;;;;;5047961;28;20437;-76
2021/10/23 06:33:52;;;;;;;7.13;1.83;;;7.20;1.00;;;;;;5038204;28;20449;-75
2021/10/23 06:36:18;;;;;;;4.80;2.10;;;7.30;1.00;;;;;;5055531;28;20438;-75
2021/10/23 06:38:43;;;;;;;2.07;1.80;;;7.40;1.00;;;;;;5052826;28;20856;-74
2021/10/23 06:41:22;;;;;;;4.43;1.57;;;7.40;1.00;;;;;;5049689;28;20241;-75
2021/10/23 06:43:48;;;;;;;1.30;1.13;;;7.60;1.00;;;;;;5036992;28;20239;-75
2021/10/23 06:46:16;;;;;;;1.47;1.23;;;7.70;1.00;;;;;;5044907;28;20461;-75
2021/10/23 06:48:42;;;;;;;4.83;1.50;;;7.80;1.00;;;;;;5054902;28;20717;-75
2021/10/23 06:51:10;;;;;;;11.60;1.70;;;7.80;1.00;;;;;;5044560;28;20514;-76
2021/10/23 06:53:40;;;;;;;1.20;1.10;;;7.90;1.00;;;;;;5053454;28;20633;-77
2021/10/23 06:56:10;;;;;;;1.80;1.70;;;7.90;1.00;;;;;;5043545;28;20845;-78
2021/10/23 06:58:36;;;;;;;3.30;1.50;;;8.00;1.00;;;;;;5041097;28;20426;-77
2021/10/23 07:01:05;;;;;;;58.80;11.73;;;8.10;1.00;;;;;;5049715;28;20430;-75
2021/10/23 07:03:31;;;;;;;5.73;2.10;;;8.20;1.00;;;;;;5054471;28;20203;-74
2021/10/23 07:05:57;;;;;;;2.60;1.77;;;8.30;1.00;;;;;;5052600;28;20410;-75
2021/10/23 07:08:34;;;;;;;1.90;1.47;;;8.40;1.00;;;;;;5054690;28;20415;-75
2021/10/23 07:11:04;;;;;;;13.90;1.93;;;8.50;1.00;;;;;;5054686;28;20418;-73
2021/10/23 07:13:30;;;;;;;4.23;2.10;;;;;;;;;;5054645;28;20468;-75
2021/10/23 07:15:56;;;;;;;5.70;1.90;;;8.70;1.00;;;;;;5054523;28;20425;-75
2021/10/23 07:18:22;;;;;;;2.20;1.50;;;8.80;1.00;;;;;;5053917;28;20516;-75
2021/10/23 07:20:58;;;;;;;8.10;2.10;;;8.90;1.00;;;;;;5054290;28;20272;-75
2021/10/23 07:23:24;;;;;;;3.07;2.30;;;9.00;1.00;;;;;;5054430;28;20454;-76
2021/10/23 07:25:52;;;;;;;6.20;2.17;;;9.10;1.00;;;;;;5054131;28;20997;-76
2021/10/23 07:28:22;;;;;;;2.17;1.57;;;9.10;1.00;;;;;;5053713;28;20179;-76
2021/10/23 07:30:53;;;;;;;5.57;2.30;;;9.30;1.00;;;;;;5053947;28;20493;-76
2021/10/23 07:33:19;;;;;;;4.20;2.37;;;9.40;1.00;;;;;;5045859;28;20410;-76
2021/10/23 07:35:46;;;;;;;2.40;2.20;;;;;;;;;;5045979;28;20495;-74
2021/10/23 07:38:13;;;;;;;4.40;2.00;;;;;;;;;;5053999;28;20429;-74
2021/10/23 07:40:39;;;;;;;4.17;2.27;;;9.60;1.00;;;;;;5049418;28;20441;-74
2021/10/23 07:43:05;;;;;;;5.80;2.60;;;;;;;;;;5044193;28;20474;-74
2021/10/23 07:45:31;;;;;;;2.10;1.70;;;9.80;1.00;;;;;;5034677;28;20492;-74
2021/10/23 07:47:58;;;;;;;6.30;2.63;;;9.80;1.00;;;;;;5045496;28;20430;-74
2021/10/23 07:50:28;;;;;;;2.50;1.77;;;9.90;1.00;;;;;;5041813;28;20897;-77
2021/10/23 07:53:04;;;;;;;3.73;2.43;;;10.00;1.00;;;;;;5042482;28;20419;-77
2021/10/23 07:55:33;;;;;;;6.20;2.63;;;10.10;1.00;;;;;;5041880;28;20470;-74
2021/10/23 07:58:01;;;;;;;3.70;2.33;;;10.20;1.00;;;;;;5046719;28;20517;-75
2021/10/23 08:00:28;;;;;;;6.00;2.60;;;10.30;1.00;;;;;;5036908;28;20442;-76
2021/10/23 08:02:59;;;;;;;3.80;2.03;;;10.40;1.00;;;;;;5044809;28;20731;-76
2021/10/23 08:05:37;;;;;;;3.07;1.83;;;10.50;1.00;;;;;;5051767;28;20772;-75
2021/10/23 08:08:05;;;;;;;10.30;2.00;;;10.60;1.00;;;;;;5047567;28;20505;-76
2021/10/23 08:10:35;;;;;;;2.93;2.33;;;10.60;1.00;;;;;;5055488;28;20842;-76
2021/10/23 08:13:04;;;;;;;2.73;1.83;;;10.80;1.00;;;;;;5046245;28;20460;-75
2021/10/23 08:15:31;;;;;;;12.20;2.20;;;10.80;1.00;;;;;;5053896;28;20497;-76
2021/10/23 08:17:59;;;;;;;4.23;1.90;;;11.00;1.00;;;;;;5053907;28;20736;-76
2021/10/23 08:20:29;;;;;;;2.83;2.03;;;11.10;1.00;;;;;;5046338;28;20914;-75
2021/10/23 08:22:55;;;;;;;2.87;2.10;;;11.20;1.00;;;;;;5033560;28;20454;-75
2021/10/23 08:25:22;;;;;;;4.77;2.00;;;;;;;;;;5033377;28;20396;-75
2021/10/23 08:27:48;;;;;;;2.10;1.67;;;;;;;;;;5046897;28;20410;-75
2021/10/23 08:30:18;;;;;;;8.70;1.93;;;11.30;1.00;;;;;;5053524;28;20416;-75
2021/10/23 08:32:45;;;;;;;4.00;1.53;;;11.30;1.00;;;;;;5053266;28;20422;-75
2021/10/23 08:35:17;;;;;;;6.13;2.60;;;11.40;1.00;;;;;;5053659;28;20410;-77
2021/10/23 08:37:43;;;;;;;4.63;1.97;;;11.50;1.00;;;;;;5037133;28;20440;-76
2021/10/23 08:40:10;;;;;;;1.83;1.30;;;;;;;;;;5044541;28;20422;-77
2021/10/23 08:42:47;;;;;;;2.30;1.20;;;11.60;1.00;;;;;;5053287;28;20533;-76
2021/10/23 08:45:15;;;;;;;1.97;1.60;;;11.60;1.00;;;;;;5053857;28;20417;-77
2021/10/23 08:47:47;;;;;;;1.80;1.50;;;11.70;1.00;;;;;;5052975;28;20446;-76
2021/10/23 08:50:23;;;;;;;10.67;3.00;;;11.80;1.00;;;;;;5049287;28;20436;-76
2021/10/23 08:52:53;;;;;;;8.77;2.13;;;11.80;1.00;;;;;;5043504;28;20804;-75
2021/10/23 08:55:22;;;;;;;2.37;1.67;;;11.90;1.00;;;;;;5052735;28;20893;-76
2021/10/23 08:57:48;;;;;;;1.40;1.30;;;11.90;1.00;;;;;;5053017;28;20440;-76
2021/10/23 09:00:16;;;;;;;1.57;1.40;;;11.90;1.00;;;;;;5052956;28;20432;-76
2021/10/23 09:02:41;;;;;;;2.37;1.73;;;12.00;1.00;;;;;;5050123;28;20458;-76
2021/10/23 09:05:08;;;;;;;3.63;1.97;;;12.10;1.00;;;;;;5040188;28;20438;-76
2021/10/23 09:07:42;;;;;;;4.63;1.83;;;12.10;1.00;;;;;;5038698;28;20457;-74
2021/10/23 09:10:08;;;;;;;6.30;2.00;;;12.20;1.00;;;;;;5043337;28;20446;-74
2021/10/23 09:12:36;;;;;;;2.43;1.83;;;12.10;1.00;;;;;;5043214;28;20429;-75
2021/10/23 09:15:06;;;;;;;1.80;1.53;;;12.10;1.00;;;;;;5053025;28;20909;-75
2021/10/23 09:17:32;;;;;;;2.03;1.83;;;12.20;1.00;;;;;;5042827;28;20424;-74
2021/10/23 09:20:11;;;;;;;3.13;1.80;;;12.30;1.00;;;;;;5057209;28;20901;-74
2021/10/23 09:22:42;;;;;;;2.00;1.67;;;12.30;1.00;;;;;;5046455;28;20457;-75
2021/10/23 09:25:23;;;;;;;5.80;2.00;;;12.50;1.00;;;;;;5053030;28;20397;-76
2021/10/23 09:27:58;;;;;;;5.87;1.80;;;12.60;1.00;;;;;;5045448;28;20393;-75
2021/10/23 09:30:31;;;;;;;2.10;1.90;;;12.70;1.00;;;;;;5048876;28;20921;-75
2021/10/23 09:33:05;;;;;;;3.87;2.10;;;12.90;1.00;;;;;;5043592;28;20909;-75
2021/10/23 09:35:34;;;;;;;3.80;1.70;;;;;;;;;;5052760;28;20422;-75
2021/10/23 09:38:01;;;;;;;6.40;2.47;;;13.00;1.00;;;;;;5054715;28;20532;-75
2021/10/23 09:40:29;;;;;;;2.23;2.00;;;13.10;1.00;;;;;;5056517;28;20438;-75
2021/10/23 09:43:05;;;;;;;5.80;1.67;;;13.30;1.00;;;;;;5043992;28;20511;-75
2021/10/23 09:45:31;;;;;;;8.73;1.70;;;13.40;1.00;;;;;;5052949;28;20431;-75
2021/10/23 09:48:08;;;;;;;4.80;2.07;;;13.50;1.00;;;;;;5059934;28;20952;-75
2021/10/23 09:50:35;;;;;;;1.63;1.30;;;13.60;1.00;;;;;;5036561;28;20215;-76
2021/10/23 09:53:07;;;;;;;2.53;1.60;;;13.70;1.00;;;;;;5053636;28;20896;-75
2021/10/23 09:55:39;;;;;;;4.50;1.83;;;13.90;1.00;;;;;;5047272;28;20511;-75
2021/10/23 09:58:15;;;;;;;5.67;2.10;;;14.00;1.00;;;;;;5051400;28;20415;-75
2021/10/23 10:00:42;;;;;;;3.80;1.90;;;14.00;1.00;;;;;;5049904;28;20450;-75
2021/10/23 10:03:09;;;;;;;10.50;1.77;;;14.20;1.00;;;;;;5055527;28;20420;-75
2021/10/23 10:05:35;;;;;;;4.03;1.77;;;14.20;1.00;;;;;;5049414;28;20449;-75
2021/10/23 10:08:12;;;;;;;2.20;1.43;;;14.30;1.00;;;;;;5044874;28;20883;-74
2021/10/23 10:10:40;;;;;;;2.73;1.87;;;14.40;1.00;;;;;;5047555;28;20429;-74
2021/10/23 10:13:08;;;;;;;5.30;2.30;;;14.40;1.00;;;;;;5045402;28;20606;-74
2021/10/23 10:15:35;;;;;;;4.07;2.40;;;;;;;;;;5048879;28;20419;-74
2021/10/23 10:18:07;;;;;;;4.83;1.57;;;14.60;1.00;;;;;;5035987;28;20781;-74
2021/10/23 10:20:34;;;;;;;5.40;1.77;;;14.80;1.00;;;;;;5038739;28;20888;-74
2021/10/23 10:23:00;;;;;;;1.63;1.30;;;15.00;1.00;;;;;;5047731;28;20519;-74
2021/10/23 10:25:28;;;;;;;3.20;2.07;;;15.10;1.00;;;;;;5055457;28;20392;-74
2021/10/23 10:28:14;;;;;;;2.80;1.70;;;15.20;1.00;;;;;;5055552;28;20373;-74
2021/10/23 10:30:43;;;;;;;2.87;1.67;;;15.30;1.00;;;;;;5052714;28;20400;-75
2021/10/23 10:33:27;;;;;;;2.40;1.33;;;15.30;1.00;;;;;;5065902;28;20404;-74
2021/10/23 10:36:20;;;;;;;3.67;1.30;;;15.10;1.00;;;;;;5047587;28;20397;-74
2021/10/23 10:44:17;;;;;;;6.27;1.80;;;15.20;1.00;;;;;;5041332;28;20887;-74
2021/10/23 10:47:10;;;;;;;9.40;1.90;;;15.40;1.00;;;;;;5041184;28;20386;-74
2021/10/23 10:49:54;;;;;;;3.00;1.30;;;15.50;1.00;;;;;;5039336;28;20890;-75
2021/10/23 10:52:40;;;;;;;5.30;1.37;;;15.70;1.00;;;;;;5041171;28;20774;-74
2021/10/23 10:55:16;;;;;;;9.33;2.00;;;15.70;1.00;;;;;;5043670;28;20445;-74
2021/10/23 10:58:01;;;;;;;1.20;0.97;;;15.70;1.00;;;;;;5054883;28;20796;-74
2021/10/23 11:00:45;;;;;;;2.47;1.03;;;15.60;1.00;;;;;;5037438;28;20437;-75
2021/10/23 11:03:40;;;;;;;3.80;1.17;;;15.60;1.00;;;;;;5048812;28;20429;-74
2021/10/23 11:06:28;;;;;;;3.13;1.03;;;15.70;1.00;;;;;;5043712;28;20498;-74
2021/10/23 11:09:11;;;;;;;3.27;1.40;;;15.60;1.00;;;;;;5048548;28;20502;-75
2021/10/23 11:11:46;;;;;;;4.20;1.10;;;15.60;1.00;;;;;;5047258;28;20897;-75
2021/10/23 11:14:27;;;;;;;2.30;1.47;;;15.70;1.00;;;;;;5054909;28;20387;-76
2021/10/23 11:17:14;;;;;;;3.27;1.20;;;15.70;1.00;;;;;;5054705;28;20897;-76
2021/10/23 11:19:52;;;;;;;5.57;1.30;;;15.80;1.00;;;;;;5042756;28;20431;-76
2021/10/23 11:22:20;;;;;;;4.53;1.40;;;15.80;1.00;;;;;;5053366;28;20432;-76
2021/10/23 11:25:06;;;;;;;1.83;1.40;;;15.70;1.00;;;;;;5055108;28;21038;-75
2021/10/23 11:27:50;;;;;;;3.90;1.40;;;15.80;1.00;;;;;;5043740;28;20377;-74
2021/10/23 11:30:26;;;;;;;2.30;1.40;;;15.90;1.00;;;;;;5039068;28;20443;-74
2021/10/23 11:32:53;;;;;;;7.13;1.83;;;;;;;;;;5047489;28;20417;-74
2021/10/23 11:35:29;;;;;;;5.67;1.70;;;15.60;1.00;;;;;;5048686;28;20958;-76
2021/10/23 11:37:56;;;;;;;1.57;1.13;;;15.50;1.00;;;;;;5041289;28;20495;-76
2021/10/23 11:40:22;;;;;;;1.97;1.30;;;15.50;1.00;;;;;;5048032;28;20422;-74
2021/10/23 11:42:53;;;;;;;1.60;1.50;;;15.60;1.00;;;;;;5050859;28;20542;-74
2021/10/23 11:45:21;;;;;;;3.87;1.50;;;15.70;1.00;;;;;;5036959;28;20415;-74
2021/10/23 11:47:49;;;;;;;2.90;1.80;;;15.70;1.00;;;;;;5047140;28;20480;-75
2021/10/23 11:50:30;;;;;;;4.50;1.90;;;15.70;1.00;;;;;;5045285;28;20429;-75
2021/10/23 11:53:03;;;;;;;8.00;1.33;;;15.80;1.00;;;;;;5045773;28;20435;-75
2021/10/23 11:55:36;;;;;;;4.20;1.57;;;15.80;1.00;;;;;;5036024;28;21085;-75
2021/10/23 11:58:09;;;;;;;2.50;1.20;;;15.90;1.00;;;;;;5052698;28;20436;-74
2021/10/23 12:00:43;;;;;;;3.07;1.50;;;15.90;1.00;;;;;;5039784;28;20766;-74
2021/10/23 12:03:14;;;;;;;1.83;1.43;;;15.90;1.00;;;;;;5053388;28;20496;-75
2021/10/23 12:05:44;;;;;;;2.20;1.30;;;16.00;1.00;;;;;;5053763;28;21002;-76
2021/10/23 12:08:29;;;;;;;6.80;1.90;;;15.90;1.00;;;;;;5042870;28;20415;-76
2021/10/23 12:11:09;;;;;;;8.00;1.70;;;15.90;1.00;;;;;;5041158;28;20929;-78
2021/10/23 12:13:48;;;;;;;1.73;1.20;;;;;;;;;;5053617;28;20432;-76
2021/10/23 12:16:16;;;;;;;2.27;1.50;;;16.10;1.00;;;;;;5048360;28;20412;-76
2021/10/23 12:18:46;;;;;;;2.67;1.67;;;16.10;1.00;;;;;;5049320;28;20499;-76
2021/10/23 12:21:20;;;;;;;3.60;1.33;;;16.20;1.00;;;;;;5045625;28;20389;-75
2021/10/23 12:23:56;;;;;;;7.97;1.43;;;16.10;1.00;;;;;;5041551;28;20498;-75
2021/10/23 12:26:27;;;;;;;2.93;1.00;;;16.20;1.00;;;;;;5038070;28;20805;-75
2021/10/23 12:29:10;;;;;;;1.60;1.50;;;16.20;1.00;;;;;;5053899;28;20372;-75
2021/10/23 12:32:05;;;;;;;3.53;1.43;;;16.20;1.00;;;;;;5049611;28;20423;-76
2021/10/23 12:34:52;;;;;;;1.70;1.30;;;;;;;;;;5049729;28;20435;-79
2021/10/23 12:37:44;;;;;;;2.70;1.23;;;16.00;1.00;;;;;;5044764;28;20430;-76
2021/10/23 12:40:24;;;;;;;2.33;1.40;;;16.00;1.00;;;;;;5052339;28;20735;-74
2021/10/23 12:42:59;;;;;;;4.93;1.40;;;;;;;;;;5052737;28;20962;-75
2021/10/23 12:45:27;;;;;;;2.50;1.60;;;16.10;1.00;;;;;;5053532;28;20479;-74
2021/10/23 12:47:57;;;;;;;4.10;1.70;;;16.20;1.00;;;;;;5039841;28;20462;-74
2021/10/23 12:50:24;;;;;;;2.50;1.60;;;;;;;;;;5053481;28;20486;-74
2021/10/23 12:52:53;;;;;;;3.63;1.60;;;16.20;1.00;;;;;;5052443;28;20425;-75
2021/10/23 12:55:21;;;;;;;1.60;1.10;;;16.30;1.00;;;;;;5046097;28;20389;-78
2021/10/23 12:58:05;;;;;;;4.63;1.37;;;;;;;;;;5039655;28;20385;-78
2021/10/23 13:00:31;;;;;;;5.70;1.47;;;16.20;1.00;;;;;;5053298;28;20374;-78
2021/10/23 13:03:05;;;;;;;1.83;1.10;;;;;;;;;;5053199;28;20520;-78
2021/10/23 13:05:35;;;;;;;1.87;1.17;;;;;;;;;;5050387;28;20416;-78
2021/10/23 13:08:05;;;;;;;5.97;1.50;;;;;;;;;;5035181;28;20410;-78
2021/10/23 13:10:31;;;;;;;11.40;1.63;;;15.90;1.00;;;;;;5054079;28;20398;-74
2021/10/23 13:12:57;;;;;;;4.50;1.30;;;15.80;1.00;;;;;;5056750;28;20479;-74
2021/10/23 13:15:23;;;;;;;2.23;1.40;;;;;;;;;;5043541;28;20424;-74
2021/10/23 13:17:49;;;;;;;5.77;1.37;;;15.50;1.00;;;;;;5056854;28;20410;-74
2021/10/23 13:20:15;;;;;;;2.93;1.37;;;;;;;;;;5056023;28;20404;-74
2021/10/23 13:22:47;;;;;;;1.73;1.10;;;15.40;1.00;;;;;;5056773;28;20210;-74
2021/10/23 13:25:16;;;;;;;8.30;1.13;;;15.40;1.00;;;;;;5056881;28;20400;-79
2021/10/23 13:27:43;;;;;;;1.47;1.10;;;15.30;1.00;;;;;;5044598;28;20431;-77
2021/10/23 13:30:10;;;;;;;1.03;0.90;;;15.40;1.00;;;;;;5054637;28;20449;-77
2021/10/23 13:32:36;;;;;;;2.33;1.20;;;15.30;1.00;;;;;;5061553;28;20416;-76
2021/10/23 13:35:02;;;;;;;2.60;1.10;;;15.40;1.00;;;;;;5052805;28;20435;-75